createdAt,value
2022-11-10T00:02:05.842Z,2.23
2022-11-10T00:04:32.050Z,1.77
2022-11-10T00:06:58.236Z,1.80
2022-11-10T00:09:24.412Z,2.03
2022-11-10T00:11:50.744Z,2.07
2022-11-10T00:14:35.448Z,1.97
2022-11-10T00:17:03.623Z,2.87
2022-11-10T00:19:30.464Z,2.20
2022-11-10T00:21:57.113Z,2.17
2022-11-10T00:24:23.480Z,2.37
2022-11-10T00:26:49.925Z,1.90
2022-11-10T00:29:16.295Z,2.30
2022-11-10T00:31:42.604Z,2.23
2022-11-10T00:34:12.731Z,2.33
2022-11-10T00:36:39.029Z,1.97
2022-11-10T00:39:05.397Z,1.87
2022-11-10T00:41:31.605Z,2.30
2022-11-10T00:43:57.913Z,1.73
2022-11-10T00:46:24.076Z,2.07
2022-11-10T00:48:50.227Z,2.07
2022-11-10T00:51:20.728Z,2.17
2022-11-10T00:53:46.988Z,2.73
2022-11-10T00:56:13.171Z,2.17
2022-11-10T00:58:39.332Z,1.77
2022-11-10T01:01:05.847Z,2.10
2022-11-10T01:03:32.335Z,1.90
2022-11-10T01:05:58.543Z,2.07
2022-11-10T01:08:25.373Z,2.03
2022-11-10T01:10:51.498Z,1.90
2022-11-10T01:13:17.658Z,2.00
2022-11-10T01:15:43.925Z,3.10
2022-11-10T01:18:10.079Z,2.37
2022-11-10T01:20:36.211Z,2.33
2022-11-10T01:23:02.360Z,1.87
2022-11-10T01:25:29.192Z,2.27
2022-11-10T01:27:55.300Z,1.90
2022-11-10T01:30:21.413Z,1.83
2022-11-10T01:32:47.592Z,1.80
2022-11-10T01:35:13.782Z,2.03
2022-11-10T01:37:39.941Z,2.20
2022-11-10T01:40:07.713Z,2.00
2022-11-10T01:42:44.515Z,2.13
2022-11-10T01:45:44.896Z,2.37
2022-11-10T01:48:14.580Z,1.90
2022-11-10T01:50:41.697Z,2.17
2022-11-10T01:53:11.241Z,2.43
2022-11-10T01:55:38.976Z,2.50
2022-11-10T01:58:05.986Z,2.27
2022-11-10T02:00:32.121Z,2.40
2022-11-10T02:03:03.415Z,2.23
2022-11-10T02:05:29.536Z,2.87
2022-11-10T02:07:56.466Z,2.03
2022-11-10T02:10:22.679Z,2.13
2022-11-10T02:12:49.447Z,2.30
2022-11-10T02:15:17.444Z,2.17
2022-11-10T02:17:45.610Z,2.40
2022-11-10T02:20:13.827Z,2.10
2022-11-10T02:22:40.830Z,2.00
2022-11-10T02:25:08.059Z,3.00
2022-11-10T02:27:34.201Z,2.40
2022-11-10T02:30:01.359Z,2.00
2022-11-10T02:32:27.924Z,2.23
2022-11-10T02:34:54.320Z,2.03
2022-11-10T02:37:20.698Z,2.30
2022-11-10T02:39:47.473Z,2.27
2022-11-10T02:42:13.615Z,2.13
2022-11-10T02:44:40.247Z,2.13
2022-11-10T02:47:06.902Z,2.00
2022-11-10T02:49:33.107Z,2.90
2022-11-10T02:51:59.333Z,2.30
2022-11-10T02:54:25.456Z,2.10
2022-11-10T02:56:52.576Z,2.57
2022-11-10T02:59:18.721Z,2.53
2022-11-10T03:01:44.942Z,2.10
2022-11-10T03:04:11.428Z,3.23
2022-11-10T03:06:37.598Z,2.80
2022-11-10T03:09:03.851Z,2.47
2022-11-10T03:11:32.382Z,2.30
2022-11-10T03:14:02.039Z,2.40
2022-11-10T03:16:28.842Z,2.73
2022-11-10T03:18:54.983Z,2.50
2022-11-10T03:21:21.112Z,2.90
2022-11-10T03:23:47.274Z,2.97
2022-11-10T03:26:13.575Z,2.70
2022-11-10T03:28:39.758Z,3.37
2022-11-10T03:31:06.640Z,2.73
2022-11-10T03:33:32.756Z,2.57
2022-11-10T03:35:58.915Z,3.13
2022-11-10T03:38:25.050Z,3.03
2022-11-10T03:41:17.411Z,2.90
2022-11-10T03:43:37.888Z,2.53
2022-11-10T03:46:04.170Z,3.60
2022-11-10T03:48:30.995Z,2.27
2022-11-10T03:50:57.181Z,2.03
2022-11-10T03:53:23.761Z,2.60
2022-11-10T03:55:50.070Z,2.97
2022-11-10T03:58:16.211Z,2.43
2022-11-10T04:00:42.392Z,2.90
2022-11-10T04:03:08.552Z,3.10
2022-11-10T04:05:53.631Z,2.90
2022-11-10T04:08:37.896Z,2.97
2022-11-10T04:11:04.070Z,2.30
2022-11-10T04:13:48.719Z,2.70
2022-11-10T04:16:14.891Z,2.70
2022-11-10T04:18:41.505Z,2.60
2022-11-10T04:21:08.451Z,2.60
2022-11-10T04:23:35.246Z,2.70
2022-11-10T04:26:21.573Z,2.53
2022-11-10T04:28:49.417Z,2.57
2022-11-10T04:31:17.081Z,2.20
2022-11-10T04:33:43.823Z,3.53
2022-11-10T04:36:11.988Z,2.87
2022-11-10T04:38:38.310Z,2.57
2022-11-10T04:41:05.035Z,3.17
2022-11-10T04:43:31.641Z,3.37
2022-11-10T04:45:58.152Z,2.90
2022-11-10T04:48:24.909Z,2.70
2022-11-10T04:50:51.225Z,2.70
2022-11-10T04:53:18.654Z,2.90
2022-11-10T04:55:45.575Z,2.77
2022-11-10T04:58:12.046Z,3.23
2022-11-10T05:00:38.840Z,2.83
2022-11-10T05:03:07.181Z,2.67
2022-11-10T05:05:33.365Z,2.53
2022-11-10T05:07:59.588Z,2.77
2022-11-10T05:10:27.049Z,4.03
2022-11-10T05:12:53.794Z,3.03
2022-11-10T05:15:20.105Z,3.70
2022-11-10T05:17:48.018Z,3.20
2022-11-10T05:20:14.293Z,2.47
2022-11-10T05:22:43.048Z,2.83
2022-11-10T05:25:11.455Z,3.83
2022-11-10T05:27:38.352Z,3.27
2022-11-10T05:30:05.675Z,3.10
2022-11-10T05:32:31.864Z,3.63
2022-11-10T05:34:58.009Z,4.23
2022-11-10T05:37:24.942Z,3.40
2022-11-10T05:39:51.156Z,3.50
2022-11-10T05:42:17.327Z,3.23
2022-11-10T05:44:44.116Z,2.60
2022-11-10T05:47:10.277Z,3.47
2022-11-10T05:49:36.416Z,2.87
2022-11-10T05:52:02.879Z,3.00
2022-11-10T05:54:29.041Z,3.37
2022-11-10T05:56:55.202Z,3.03
2022-11-10T05:59:21.348Z,3.57
2022-11-10T06:01:48.137Z,3.10
2022-11-10T06:04:14.262Z,3.17
2022-11-10T06:06:40.582Z,3.60
2022-11-10T06:09:06.749Z,2.90
2022-11-10T06:11:32.903Z,3.07
2022-11-10T06:14:00.104Z,2.90
2022-11-10T06:16:26.275Z,3.20
2022-11-10T06:18:53.060Z,2.67
2022-11-10T06:21:19.221Z,2.63
2022-11-10T06:23:45.394Z,3.13
2022-11-10T06:26:11.534Z,2.60
2022-11-10T06:28:37.711Z,2.60
2022-11-10T06:31:04.028Z,3.00
2022-11-10T06:33:30.175Z,3.10
2022-11-10T06:35:56.953Z,3.67
2022-11-10T06:38:23.137Z,3.10
2022-11-10T06:40:49.287Z,3.63
2022-11-10T06:43:15.512Z,3.00
2022-11-10T06:45:41.694Z,3.23
2022-11-10T06:48:09.617Z,3.83
2022-11-10T06:50:35.723Z,3.83
2022-11-10T06:53:02.851Z,3.63
2022-11-10T06:55:29.460Z,3.63
2022-11-10T06:57:55.671Z,3.27
2022-11-10T07:00:22.260Z,3.87
2022-11-10T07:02:48.422Z,3.50
2022-11-10T07:05:14.933Z,3.60
2022-11-10T07:07:41.238Z,3.33
2022-11-10T07:10:08.672Z,3.83
2022-11-10T07:12:34.830Z,3.90
2022-11-10T07:15:00.983Z,3.53
2022-11-10T07:17:27.122Z,4.00
2022-11-10T07:19:53.824Z,3.63
2022-11-10T07:22:20.007Z,3.87
2022-11-10T07:24:46.128Z,3.80
2022-11-10T07:27:12.905Z,4.43
2022-11-10T07:29:39.144Z,3.90
2022-11-10T07:32:05.345Z,4.33
2022-11-10T07:34:31.496Z,3.87
2022-11-10T07:36:58.181Z,4.40
2022-11-10T07:39:24.365Z,4.00
2022-11-10T07:41:52.643Z,4.37
2022-11-10T07:44:19.646Z,4.00
2022-11-10T07:46:46.184Z,4.00
2022-11-10T07:49:12.347Z,3.90
2022-11-10T07:51:38.505Z,3.90
2022-11-10T07:54:04.632Z,3.80
2022-11-10T07:56:30.929Z,4.33
2022-11-10T07:58:57.083Z,3.67
2022-11-10T08:01:23.950Z,3.73
2022-11-10T08:03:50.209Z,4.43
2022-11-10T08:06:16.440Z,4.23
2022-11-10T08:08:42.625Z,4.07
2022-11-10T08:11:08.814Z,3.83
2022-11-10T08:13:34.995Z,3.70
2022-11-10T08:16:02.308Z,3.90
2022-11-10T08:18:34.945Z,3.40
2022-11-10T08:21:01.876Z,3.50
2022-11-10T08:23:28.050Z,3.43
2022-11-10T08:25:57.507Z,3.53
2022-11-10T08:28:23.683Z,2.73
2022-11-10T08:30:49.899Z,3.50
2022-11-10T08:33:17.537Z,2.63
2022-11-10T08:35:46.640Z,2.47
2022-11-10T08:38:14.243Z,3.40
2022-11-10T08:40:41.255Z,3.13
2022-11-10T08:43:07.714Z,3.73
2022-11-10T08:45:34.613Z,3.27
2022-11-10T08:48:02.263Z,2.90
2022-11-10T08:50:29.172Z,2.83
2022-11-10T08:52:56.032Z,2.73
2022-11-10T08:55:22.235Z,3.10
2022-11-10T08:57:48.647Z,3.10
2022-11-10T09:00:16.113Z,2.73
2022-11-10T09:02:42.248Z,2.63
2022-11-10T09:05:09.000Z,2.73
2022-11-10T09:07:42.593Z,2.77
2022-11-10T09:10:10.177Z,2.77
2022-11-10T09:12:36.412Z,2.50
2022-11-10T09:15:02.995Z,2.70
2022-11-10T09:17:31.316Z,2.60
2022-11-10T09:19:57.467Z,2.50
2022-11-10T09:22:23.643Z,2.70
2022-11-10T09:24:50.239Z,2.70
2022-11-10T09:27:17.270Z,3.77
2022-11-10T09:29:43.395Z,3.37
2022-11-10T09:32:09.504Z,3.13
2022-11-10T09:34:35.677Z,3.07
2022-11-10T09:37:01.832Z,2.93
2022-11-10T09:39:28.011Z,3.17
2022-11-10T09:41:54.370Z,3.17
2022-11-10T09:44:23.728Z,3.37
2022-11-10T09:46:53.103Z,3.17
2022-11-10T09:49:27.741Z,2.50
2022-11-10T09:51:54.847Z,2.47
2022-11-10T09:54:33.084Z,2.80
2022-11-10T09:57:00.116Z,2.77
2022-11-10T09:59:28.654Z,2.70
2022-11-10T10:02:00.129Z,2.80
2022-11-10T10:04:48.830Z,2.90
2022-11-10T10:07:20.753Z,2.67
2022-11-10T10:09:51.838Z,2.73
2022-11-10T10:12:27.263Z,2.70
2022-11-10T10:15:15.177Z,3.43
2022-11-10T10:17:48.576Z,3.13
2022-11-10T10:20:19.393Z,2.87
2022-11-10T10:22:55.715Z,2.80
2022-11-10T10:25:23.112Z,3.13
2022-11-10T10:27:52.570Z,2.60
2022-11-10T10:30:20.226Z,3.37
2022-11-10T10:32:46.512Z,3.40
2022-11-10T10:35:13.972Z,2.63
2022-11-10T10:37:44.127Z,3.07
2022-11-10T10:40:15.151Z,2.70
2022-11-10T10:42:41.410Z,3.13
2022-11-10T10:45:16.607Z,2.67
2022-11-10T10:47:44.183Z,3.27
2022-11-10T10:50:25.808Z,2.70
2022-11-10T10:53:12.077Z,2.83
2022-11-10T10:55:38.716Z,2.77
2022-11-10T10:58:09.101Z,3.63
2022-11-10T11:00:43.040Z,2.97
2022-11-10T11:03:12.897Z,2.77
2022-11-10T11:05:39.076Z,2.73
2022-11-10T11:08:05.333Z,3.33
2022-11-10T11:10:34.092Z,3.27
2022-11-10T11:13:13.821Z,3.43
2022-11-10T11:15:39.994Z,2.27
2022-11-10T11:18:13.373Z,3.10
2022-11-10T11:20:44.760Z,2.20
2022-11-10T11:23:21.736Z,2.57
2022-11-10T11:25:48.618Z,2.33
2022-11-10T11:28:20.138Z,2.97
2022-11-10T11:30:51.496Z,2.50
2022-11-10T11:33:33.600Z,2.17
2022-11-10T11:36:03.627Z,2.37
2022-11-10T11:38:31.844Z,2.03
2022-11-10T11:41:07.198Z,2.60
2022-11-10T11:43:58.290Z,2.20
2022-11-10T11:46:30.849Z,2.00
2022-11-10T11:49:06.170Z,2.20
2022-11-10T11:51:38.499Z,3.23
2022-11-10T11:54:19.069Z,1.90
2022-11-10T11:56:47.349Z,2.30
2022-11-10T11:59:23.568Z,2.00
2022-11-10T12:02:01.962Z,2.27
2022-11-10T12:04:42.353Z,2.10
2022-11-10T12:07:18.568Z,2.10
2022-11-10T12:09:47.260Z,1.83
2022-11-10T12:12:37.129Z,2.27
2022-11-10T12:15:10.565Z,1.70
2022-11-10T12:17:46.530Z,2.47
2022-11-10T12:20:23.538Z,1.87
2022-11-10T12:22:57.151Z,2.20
2022-11-10T12:25:27.769Z,1.90
2022-11-10T12:28:05.149Z,2.57
2022-11-10T12:30:32.708Z,2.23
2022-11-10T12:33:02.838Z,2.20
2022-11-10T12:35:32.998Z,1.80
2022-11-10T12:38:02.247Z,1.80
2022-11-10T12:40:31.720Z,1.67
2022-11-10T12:43:00.205Z,1.67
2022-11-10T12:45:28.844Z,1.70
2022-11-10T12:47:55.520Z,1.57
2022-11-10T12:50:31.593Z,1.90
2022-11-10T12:52:59.707Z,1.77
2022-11-10T12:55:32.204Z,1.73
2022-11-10T12:58:00.563Z,1.90
2022-11-10T13:00:28.872Z,1.60
2022-11-10T13:02:56.059Z,1.73
2022-11-10T13:05:28.715Z,1.67
2022-11-10T13:08:11.152Z,1.47
2022-11-10T13:10:50.062Z,2.27
2022-11-10T13:13:16.237Z,2.00
2022-11-10T13:15:48.757Z,2.00
2022-11-10T13:18:23.869Z,1.70
2022-11-10T13:20:52.029Z,2.10
2022-11-10T13:23:26.458Z,2.20
2022-11-10T13:25:54.693Z,2.20
2022-11-10T13:28:56.258Z,1.77
2022-11-10T13:31:50.434Z,1.43
2022-11-10T13:34:28.223Z,1.70
2022-11-10T13:36:54.469Z,1.67
2022-11-10T13:39:27.737Z,1.87
2022-11-10T13:41:59.252Z,1.50
2022-11-10T13:44:26.858Z,1.93
2022-11-10T13:47:10.111Z,1.87
2022-11-10T13:49:53.148Z,2.03
2022-11-10T13:52:24.341Z,1.70
2022-11-10T13:55:02.780Z,1.50
2022-11-10T13:57:31.073Z,1.43
2022-11-10T13:59:59.547Z,1.50
2022-11-10T14:02:47.511Z,1.80
2022-11-10T14:06:00.362Z,1.70
2022-11-10T14:08:29.482Z,1.40
2022-11-10T14:10:59.053Z,1.60
2022-11-10T14:13:30.724Z,1.40
2022-11-10T14:15:57.353Z,1.37
2022-11-10T14:18:26.519Z,1.57
2022-11-10T14:20:55.885Z,2.90
2022-11-10T14:23:25.699Z,1.80
2022-11-10T14:25:55.672Z,2.17
2022-11-10T14:28:26.166Z,2.03
2022-11-10T14:30:53.479Z,2.00
2022-11-10T14:33:19.825Z,2.30
2022-11-10T14:35:48.679Z,1.57
2022-11-10T14:38:20.954Z,1.97
2022-11-10T14:40:48.172Z,1.57
2022-11-10T14:43:25.856Z,1.97
2022-11-10T14:45:52.352Z,1.43
2022-11-10T14:48:22.148Z,1.47
2022-11-10T14:50:49.428Z,1.67
2022-11-10T14:53:19.035Z,1.53
2022-11-10T14:55:46.887Z,1.60
2022-11-10T14:58:21.238Z,1.30
2022-11-10T15:00:48.848Z,1.60
2022-11-10T15:03:17.755Z,1.37
2022-11-10T15:05:44.339Z,2.30
2022-11-10T15:08:10.631Z,2.80
2022-11-10T15:10:45.607Z,2.00
2022-11-10T15:13:19.835Z,2.00
2022-11-10T15:15:45.991Z,1.70
2022-11-10T15:18:25.540Z,1.60
2022-11-10T15:21:01.748Z,1.47
2022-11-10T15:23:33.668Z,1.50
2022-11-10T15:26:00.114Z,1.87
2022-11-10T15:28:30.812Z,1.83
2022-11-10T15:30:59.024Z,1.70
2022-11-10T15:33:27.538Z,1.60
2022-11-10T15:35:55.364Z,1.53
2022-11-10T15:38:30.258Z,1.80
2022-11-10T15:41:11.380Z,1.73
2022-11-10T15:43:37.968Z,2.07
2022-11-10T15:46:17.332Z,1.90
2022-11-10T15:48:46.314Z,1.83
2022-11-10T15:51:14.716Z,2.10
2022-11-10T15:53:42.464Z,1.90
2022-11-10T15:56:13.584Z,1.93
2022-11-10T15:58:39.981Z,2.10
2022-11-10T16:01:06.221Z,1.60
2022-11-10T16:03:32.481Z,2.00
2022-11-10T16:05:59.340Z,1.80
2022-11-10T16:08:26.333Z,1.70
2022-11-10T16:10:53.835Z,2.10
2022-11-10T16:13:24.067Z,1.80
2022-11-10T16:15:50.711Z,1.93
2022-11-10T16:18:19.203Z,1.73
2022-11-10T16:20:45.578Z,2.10
2022-11-10T16:23:12.375Z,1.93
2022-11-10T16:25:38.753Z,2.00
2022-11-10T16:28:05.088Z,2.50
2022-11-10T16:30:31.895Z,5.30
2022-11-10T16:32:58.210Z,10.53
2022-11-10T16:35:24.397Z,5.97
2022-11-10T16:37:50.532Z,3.10
2022-11-10T16:40:19.051Z,2.83
2022-11-10T16:42:45.447Z,2.77
2022-11-10T16:45:15.379Z,2.60
2022-11-10T16:47:42.227Z,2.13
2022-11-10T16:50:25.267Z,3.20
2022-11-10T16:52:51.533Z,3.07
2022-11-10T16:55:18.427Z,2.20
2022-11-10T16:57:44.573Z,2.10
2022-11-10T17:00:12.285Z,2.10
2022-11-10T17:02:39.563Z,1.77
2022-11-10T17:05:06.246Z,1.80
2022-11-10T17:07:32.956Z,2.80
2022-11-10T17:09:59.976Z,1.60
2022-11-10T17:12:26.816Z,2.03
2022-11-10T17:14:52.957Z,2.80
2022-11-10T17:17:19.464Z,2.40
2022-11-10T17:19:46.772Z,2.13
2022-11-10T17:22:16.233Z,2.00
2022-11-10T17:24:42.502Z,2.03
2022-11-10T17:27:09.837Z,1.73
2022-11-10T17:29:36.668Z,2.30
2022-11-10T17:32:02.896Z,2.57
2022-11-10T17:34:29.065Z,3.00
2022-11-10T17:36:55.236Z,1.70
2022-11-10T17:39:22.215Z,1.80
2022-11-10T17:41:48.400Z,1.63
2022-11-10T17:44:15.885Z,1.80
2022-11-10T17:46:42.958Z,1.63
2022-11-10T17:49:09.340Z,1.97
2022-11-10T17:51:36.012Z,1.97
2022-11-10T17:54:03.657Z,1.93
2022-11-10T17:56:29.975Z,1.97
2022-11-10T17:58:56.207Z,2.50
2022-11-10T18:01:22.661Z,2.60
2022-11-10T18:03:50.131Z,2.70
2022-11-10T18:06:18.158Z,2.30
2022-11-10T18:08:44.687Z,2.43
2022-11-10T18:11:12.463Z,2.47
2022-11-10T18:13:39.787Z,2.20
2022-11-10T18:16:08.969Z,2.30
2022-11-10T18:18:35.617Z,2.50
2022-11-10T18:21:03.091Z,2.30
2022-11-10T18:23:29.445Z,2.70
2022-11-10T18:25:55.712Z,2.33
2022-11-10T18:28:21.928Z,2.90
2022-11-10T18:30:48.111Z,2.80
2022-11-10T18:33:14.442Z,2.73
2022-11-10T18:35:40.796Z,2.20
2022-11-10T18:38:09.245Z,2.13
2022-11-10T18:40:35.625Z,2.00
2022-11-10T18:43:07.260Z,2.50
2022-11-10T18:45:35.219Z,2.83
2022-11-10T18:48:02.654Z,2.07
2022-11-10T18:50:29.165Z,2.57
2022-11-10T18:52:55.792Z,2.47
2022-11-10T18:55:22.671Z,2.70
2022-11-10T18:57:48.863Z,2.60
2022-11-10T19:00:15.888Z,2.63
2022-11-10T19:02:42.534Z,2.50
2022-11-10T19:05:08.989Z,2.60
2022-11-10T19:07:35.442Z,2.40
2022-11-10T19:10:01.806Z,2.90
2022-11-10T19:12:28.993Z,2.80
2022-11-10T19:14:55.649Z,3.17
2022-11-10T19:17:21.900Z,2.60
2022-11-10T19:19:52.009Z,3.00
2022-11-10T19:22:21.813Z,2.60
2022-11-10T19:25:07.209Z,2.93
2022-11-10T19:27:35.668Z,2.77
2022-11-10T19:30:02.163Z,2.50
2022-11-10T19:32:29.282Z,2.60
2022-11-10T19:34:55.771Z,2.63
2022-11-10T19:37:22.870Z,2.57
2022-11-10T19:39:49.258Z,2.63
2022-11-10T19:42:15.579Z,2.63
2022-11-10T19:44:42.440Z,2.80
2022-11-10T19:47:08.740Z,2.93
2022-11-10T19:49:37.504Z,3.00
2022-11-10T19:52:03.872Z,3.03
2022-11-10T19:54:30.129Z,2.90
2022-11-10T19:56:56.309Z,2.73
2022-11-10T19:59:22.547Z,2.63
2022-11-10T20:01:49.561Z,2.90
2022-11-10T20:04:15.839Z,2.93
2022-11-10T20:06:42.045Z,2.90
2022-11-10T20:09:08.454Z,3.47
2022-11-10T20:11:34.693Z,3.10
2022-11-10T20:14:01.143Z,3.50
2022-11-10T20:16:27.589Z,2.60
2022-11-10T20:18:54.622Z,3.20
2022-11-10T20:21:22.816Z,3.17
2022-11-10T20:23:52.624Z,3.60
2022-11-10T20:26:18.980Z,3.27
2022-11-10T20:28:45.309Z,3.70
2022-11-10T20:31:15.490Z,3.63
2022-11-10T20:33:42.233Z,3.67
2022-11-10T20:36:15.965Z,3.80
2022-11-10T20:38:45.585Z,3.80
2022-11-10T20:41:14.462Z,3.80
2022-11-10T20:43:41.064Z,3.80
2022-11-10T20:46:16.125Z,4.33
2022-11-10T20:48:49.038Z,4.10
2022-11-10T20:51:18.432Z,3.80
2022-11-10T20:53:45.063Z,4.17
2022-11-10T20:56:12.074Z,4.50
2022-11-10T20:58:38.403Z,4.60
2022-11-10T21:01:06.194Z,4.20
2022-11-10T21:03:32.976Z,4.30
2022-11-10T21:06:00.284Z,4.70
2022-11-10T21:08:27.532Z,4.40
2022-11-10T21:10:55.405Z,4.90
2022-11-10T21:13:22.966Z,4.60
2022-11-10T21:15:50.696Z,4.63
2022-11-10T21:18:17.348Z,4.47
2022-11-10T21:20:43.816Z,5.30
2022-11-10T21:23:10.275Z,5.13
2022-11-10T21:25:37.395Z,4.87
2022-11-10T21:28:04.346Z,5.00
2022-11-10T21:30:30.646Z,4.97
2022-11-10T21:32:56.918Z,5.10
2022-11-10T21:35:23.359Z,5.17
2022-11-10T21:37:49.711Z,5.23
2022-11-10T21:40:16.242Z,4.90
2022-11-10T21:42:43.031Z,5.23
2022-11-10T21:45:10.182Z,4.93
2022-11-10T21:47:36.634Z,5.30
2022-11-10T21:50:03.753Z,5.67
2022-11-10T21:52:31.911Z,5.50
2022-11-10T21:54:58.245Z,4.80
2022-11-10T21:57:24.672Z,5.40
2022-11-10T21:59:51.857Z,4.73
2022-11-10T22:02:18.141Z,5.53
2022-11-10T22:04:44.426Z,5.53
2022-11-10T22:07:23.169Z,5.40
2022-11-10T22:10:08.376Z,5.13
2022-11-10T22:12:53.134Z,5.37
2022-11-10T22:15:38.509Z,5.47
2022-11-10T22:18:29.496Z,5.00
2022-11-10T22:20:55.854Z,4.93
2022-11-10T22:23:42.281Z,5.30
2022-11-10T22:26:08.489Z,6.10
2022-11-10T22:28:34.865Z,5.30
2022-11-10T22:31:02.926Z,6.00
2022-11-10T22:33:31.621Z,5.67
2022-11-10T22:35:59.517Z,5.90
2022-11-10T22:38:25.729Z,5.37
2022-11-10T22:41:10.159Z,5.50
2022-11-10T22:43:54.817Z,6.03
2022-11-10T22:46:21.818Z,5.60
2022-11-10T22:48:48.065Z,5.20
2022-11-10T22:51:14.373Z,5.90
2022-11-10T22:53:40.756Z,5.63
2022-11-10T22:56:07.324Z,5.47
2022-11-10T22:58:33.758Z,4.83
2022-11-10T23:01:04.581Z,5.80
2022-11-10T23:03:31.624Z,5.17
2022-11-10T23:05:57.858Z,5.80
2022-11-10T23:08:24.126Z,5.73
2022-11-10T23:10:57.075Z,5.13
2022-11-10T23:13:23.770Z,5.10
2022-11-10T23:15:52.368Z,5.60
2022-11-10T23:18:18.824Z,5.17
2022-11-10T23:20:45.704Z,5.50
2022-11-10T23:23:12.152Z,6.17
2022-11-10T23:25:38.400Z,6.60
2022-11-10T23:28:04.978Z,6.53
2022-11-10T23:30:32.576Z,6.03
2022-11-10T23:32:58.844Z,6.50
2022-11-10T23:35:25.048Z,6.37
2022-11-10T23:37:51.860Z,6.10
2022-11-10T23:40:18.167Z,5.83
2022-11-10T23:42:44.918Z,6.50
2022-11-10T23:45:11.129Z,6.33
2022-11-10T23:47:37.414Z,6.10
2022-11-10T23:50:04.306Z,5.50
2022-11-10T23:52:30.635Z,6.70
2022-11-10T23:54:57.644Z,6.17
2022-11-10T23:57:23.914Z,7.23
2022-11-10T23:59:50.277Z,7.23
